createdAt,value
2023-01-12T00:02:21.852Z,37.40
2023-01-12T00:04:50.099Z,46.70
2023-01-12T00:07:18.313Z,46.80
2023-01-12T00:09:46.230Z,33.10
2023-01-12T00:12:14.252Z,32.80
2023-01-12T00:14:42.083Z,35.10
2023-01-12T00:17:11.967Z,32.30
2023-01-12T00:19:40.357Z,30.80
2023-01-12T00:22:11.910Z,31.90
2023-01-12T00:24:46.216Z,27.30
2023-01-12T00:27:17.361Z,27.70
2023-01-12T00:29:45.548Z,23.50
2023-01-12T00:32:19.220Z,19.30
2023-01-12T00:34:47.528Z,21.10
2023-01-12T00:37:16.024Z,21.60
2023-01-12T00:39:53.280Z,20.30
2023-01-12T00:42:43.447Z,19.20
2023-01-12T00:45:23.764Z,19.70
2023-01-12T00:47:53.310Z,24.00
2023-01-12T00:50:21.395Z,20.30
2023-01-12T00:52:49.322Z,22.50
2023-01-12T00:55:17.253Z,22.50
2023-01-12T00:57:45.290Z,21.90
2023-01-12T01:00:13.808Z,21.90
2023-01-12T01:02:41.737Z,24.50
2023-01-12T01:05:10.092Z,21.70
2023-01-12T01:07:38.246Z,18.80
2023-01-12T01:10:06.603Z,19.60
2023-01-12T01:12:34.541Z,19.50
2023-01-12T01:15:02.799Z,20.20
2023-01-12T01:17:30.802Z,17.80
2023-01-12T01:19:58.930Z,17.30
2023-01-12T01:22:27.277Z,19.60
2023-01-12T01:24:55.170Z,21.40
2023-01-12T01:27:23.101Z,19.90
2023-01-12T01:29:50.981Z,20.50
2023-01-12T01:32:18.813Z,22.80
2023-01-12T01:34:47.179Z,20.80
2023-01-12T01:37:14.993Z,17.60
2023-01-12T01:39:42.906Z,21.30
2023-01-12T01:42:28.239Z,24.20
2023-01-12T01:44:59.548Z,20.10
2023-01-12T01:47:36.348Z,20.80
2023-01-12T01:50:12.269Z,20.70
2023-01-12T01:52:44.179Z,24.10
2023-01-12T01:55:34.601Z,23.50
2023-01-12T01:58:17.139Z,23.90
2023-01-12T02:00:46.424Z,23.60
2023-01-12T02:03:16.567Z,23.40
2023-01-12T02:05:49.001Z,23.00
2023-01-12T02:08:24.808Z,21.20
2023-01-12T02:10:53.890Z,21.60
2023-01-12T02:13:42.570Z,22.20
2023-01-12T02:16:20.756Z,22.10
2023-01-12T02:18:53.327Z,20.80
2023-01-12T02:21:24.111Z,17.30
2023-01-12T02:24:18.009Z,19.10
2023-01-12T02:27:11.183Z,18.50
2023-01-12T02:30:00.374Z,22.50
2023-01-12T02:32:57.846Z,23.40
2023-01-12T02:35:33.561Z,21.10
2023-01-12T02:38:15.571Z,19.50
2023-01-12T02:41:08.168Z,21.60
2023-01-12T02:43:38.162Z,22.40
2023-01-12T02:46:21.642Z,24.60
2023-01-12T02:49:02.048Z,24.10
2023-01-12T02:51:34.886Z,26.10
2023-01-12T02:54:06.753Z,24.80
2023-01-12T02:56:39.291Z,24.50
2023-01-12T02:59:17.529Z,21.80
2023-01-12T03:01:48.857Z,24.30
2023-01-12T03:04:18.755Z,21.80
2023-01-12T03:06:55.754Z,24.10
2023-01-12T03:09:32.841Z,24.20
2023-01-12T03:12:07.340Z,23.00
2023-01-12T03:14:39.201Z,26.70
2023-01-12T03:17:13.669Z,26.00
2023-01-12T03:19:45.538Z,23.30
2023-01-12T03:22:22.226Z,24.60
2023-01-12T03:24:56.446Z,25.00
2023-01-12T03:27:35.662Z,21.50
2023-01-12T03:30:12.987Z,18.50
2023-01-12T03:32:41.505Z,18.60
2023-01-12T03:35:09.938Z,19.50
2023-01-12T03:37:44.718Z,20.80
2023-01-12T03:40:23.283Z,19.10
2023-01-12T03:42:54.007Z,19.00
2023-01-12T03:45:39.752Z,21.90
2023-01-12T03:48:21.183Z,22.70
2023-01-12T03:50:58.592Z,18.90
2023-01-12T03:53:27.939Z,16.70
2023-01-12T03:55:59.610Z,16.30
2023-01-12T03:58:28.180Z,17.70
2023-01-12T04:00:56.295Z,17.10
2023-01-12T04:03:24.835Z,19.10
2023-01-12T04:05:53.019Z,20.80
2023-01-12T04:08:20.910Z,16.90
2023-01-12T04:10:49.019Z,15.30
2023-01-12T04:13:16.993Z,14.90
2023-01-12T04:15:46.534Z,14.80
2023-01-12T04:18:14.639Z,15.80
2023-01-12T04:20:42.586Z,13.30
2023-01-12T04:23:10.586Z,13.60
2023-01-12T04:25:38.497Z,15.60
2023-01-12T04:28:07.119Z,12.70
2023-01-12T04:30:35.130Z,15.20
2023-01-12T04:33:08.124Z,13.40
2023-01-12T04:35:36.131Z,13.20
2023-01-12T04:38:08.728Z,14.40
2023-01-12T04:40:36.694Z,13.50
2023-01-12T04:43:07.935Z,14.30
2023-01-12T04:45:39.951Z,14.60
2023-01-12T04:48:10.687Z,15.00
2023-01-12T04:50:39.382Z,14.50
2023-01-12T04:53:10.150Z,15.80
2023-01-12T04:55:40.573Z,15.20
2023-01-12T04:58:08.777Z,16.30
2023-01-12T05:00:36.866Z,16.00
2023-01-12T05:03:04.748Z,20.10
2023-01-12T05:05:33.641Z,16.00
2023-01-12T05:08:22.031Z,16.20
2023-01-12T05:10:54.936Z,20.10
2023-01-12T05:13:24.474Z,17.40
2023-01-12T05:15:52.329Z,19.50
2023-01-12T05:18:20.344Z,19.80
2023-01-12T05:20:48.317Z,17.90
2023-01-12T05:23:16.290Z,15.10
2023-01-12T05:25:44.184Z,14.30
2023-01-12T05:28:12.031Z,14.10
2023-01-12T05:30:39.994Z,16.80
2023-01-12T05:33:15.779Z,16.00
2023-01-12T05:35:43.651Z,15.00
2023-01-12T05:38:11.626Z,14.50
2023-01-12T05:40:39.480Z,14.70
2023-01-12T05:43:30.508Z,14.30
2023-01-12T05:46:03.363Z,17.00
2023-01-12T05:48:32.657Z,14.60
2023-01-12T05:51:02.697Z,17.40
2023-01-12T05:53:30.590Z,16.60
2023-01-12T05:55:59.357Z,20.40
2023-01-12T05:58:27.251Z,16.00
2023-01-12T06:00:55.112Z,15.90
2023-01-12T06:03:23.461Z,16.60
2023-01-12T06:05:57.034Z,15.90
2023-01-12T06:08:25.702Z,18.50
2023-01-12T06:10:53.701Z,19.00
2023-01-12T06:13:40.300Z,18.90
2023-01-12T06:16:09.380Z,14.80
2023-01-12T06:18:39.208Z,16.80
2023-01-12T06:21:08.703Z,21.80
2023-01-12T06:23:36.713Z,18.90
2023-01-12T06:26:09.631Z,21.00
2023-01-12T06:28:40.596Z,19.30
2023-01-12T06:31:11.186Z,20.10
2023-01-12T06:33:39.396Z,20.30
2023-01-12T06:36:07.982Z,16.20
2023-01-12T06:38:39.870Z,19.10
2023-01-12T06:41:30.393Z,19.70
2023-01-12T06:43:59.121Z,17.20
2023-01-12T06:46:28.187Z,22.30
2023-01-12T06:48:57.896Z,19.50
2023-01-12T06:51:26.399Z,22.90
2023-01-12T06:53:54.443Z,23.10
2023-01-12T06:56:22.695Z,17.70
2023-01-12T06:58:50.570Z,14.00
2023-01-12T07:01:18.621Z,18.70
2023-01-12T07:03:46.691Z,18.90
2023-01-12T07:06:14.607Z,17.20
2023-01-12T07:08:43.455Z,17.20
2023-01-12T07:11:15.192Z,16.30
2023-01-12T07:13:43.101Z,16.70
2023-01-12T07:16:11.140Z,17.00
2023-01-12T07:18:39.130Z,19.20
2023-01-12T07:21:09.156Z,18.50
2023-01-12T07:23:42.185Z,19.40
2023-01-12T07:26:13.494Z,17.30
2023-01-12T07:28:42.806Z,19.30
2023-01-12T07:31:10.806Z,21.50
2023-01-12T07:33:38.871Z,24.50
2023-01-12T07:36:06.903Z,20.70
2023-01-12T07:38:34.951Z,17.50
2023-01-12T07:41:04.150Z,17.40
2023-01-12T07:43:33.717Z,18.50
2023-01-12T07:46:01.811Z,18.80
2023-01-12T07:48:30.874Z,19.80
2023-01-12T07:50:59.207Z,21.30
2023-01-12T07:53:27.043Z,18.30
2023-01-12T07:55:54.959Z,19.40
2023-01-12T07:58:22.924Z,20.50
2023-01-12T08:00:50.719Z,20.60
2023-01-12T08:03:18.652Z,19.70
2023-01-12T08:05:46.697Z,20.10
2023-01-12T08:08:14.664Z,21.20
2023-01-12T08:10:43.762Z,18.70
2023-01-12T08:13:11.651Z,21.90
2023-01-12T08:15:43.895Z,24.30
2023-01-12T08:18:25.450Z,20.90
2023-01-12T08:20:58.409Z,20.80
2023-01-12T08:23:34.752Z,20.20
2023-01-12T08:26:07.015Z,18.50
2023-01-12T08:28:39.825Z,22.70
2023-01-12T08:31:11.065Z,20.20
2023-01-12T08:33:39.122Z,19.00
2023-01-12T08:36:10.339Z,21.90
2023-01-12T08:38:39.635Z,21.60
2023-01-12T08:41:26.048Z,21.90
2023-01-12T08:44:02.837Z,20.80
2023-01-12T08:46:36.861Z,17.10
2023-01-12T08:49:10.011Z,20.20
2023-01-12T08:51:39.617Z,20.70
2023-01-12T08:54:09.742Z,16.60
2023-01-12T08:56:37.780Z,17.50
2023-01-12T08:59:06.299Z,17.60
2023-01-12T09:01:35.088Z,20.00
2023-01-12T09:04:03.499Z,23.00
2023-01-12T09:06:35.956Z,17.30
2023-01-12T09:09:06.354Z,16.10
2023-01-12T09:11:35.291Z,19.70
2023-01-12T09:14:03.647Z,19.60
2023-01-12T09:16:33.736Z,20.40
2023-01-12T09:19:02.053Z,18.90
2023-01-12T09:21:30.997Z,20.80
2023-01-12T09:23:59.410Z,18.50
2023-01-12T09:26:31.997Z,17.90
2023-01-12T09:29:01.433Z,14.50
2023-01-12T09:31:31.143Z,16.70
2023-01-12T09:33:59.940Z,15.10
2023-01-12T09:36:30.441Z,19.00
2023-01-12T09:38:58.628Z,15.10
2023-01-12T09:41:49.923Z,14.30
2023-01-12T09:44:36.481Z,14.60
2023-01-12T09:47:08.322Z,18.10
2023-01-12T09:49:42.040Z,15.20
2023-01-12T09:52:26.914Z,15.00
2023-01-12T09:54:54.801Z,16.90
2023-01-12T09:57:41.446Z,15.30
2023-01-12T10:00:14.131Z,15.50
2023-01-12T10:02:48.129Z,19.50
2023-01-12T10:05:40.038Z,18.00
2023-01-12T10:08:15.919Z,17.80
2023-01-12T10:10:55.737Z,20.00
2023-01-12T10:13:27.061Z,19.80
2023-01-12T10:16:02.836Z,20.30
2023-01-12T10:18:41.674Z,19.30
2023-01-12T10:21:11.411Z,18.80
2023-01-12T10:23:39.221Z,17.80
2023-01-12T10:26:23.235Z,19.90
2023-01-12T10:28:55.040Z,20.70
2023-01-12T10:31:25.588Z,19.30
2023-01-12T10:34:11.864Z,20.30
2023-01-12T10:36:50.277Z,22.00
2023-01-12T10:39:44.497Z,20.60
2023-01-12T10:42:41.289Z,20.50
2023-01-12T10:45:14.370Z,18.50
2023-01-12T10:47:44.109Z,19.50
2023-01-12T10:50:22.343Z,20.40
2023-01-12T10:53:02.240Z,24.30
2023-01-12T10:55:33.860Z,24.40
2023-01-12T10:58:01.922Z,23.50
2023-01-12T11:00:30.339Z,25.40
2023-01-12T11:02:58.488Z,21.50
2023-01-12T11:05:31.019Z,26.50
2023-01-12T11:07:59.133Z,28.00
2023-01-12T11:10:30.488Z,53.80
2023-01-12T11:13:01.290Z,55.20
2023-01-12T11:15:30.339Z,28.30
2023-01-12T11:18:48.977Z,27.70
2023-01-12T11:21:22.398Z,28.90
2023-01-12T11:24:02.949Z,27.10
2023-01-12T11:26:47.041Z,24.30
2023-01-12T11:29:54.838Z,24.90
2023-01-12T11:32:32.601Z,25.90
2023-01-12T11:35:35.233Z,23.30
2023-01-12T11:38:11.770Z,22.10
2023-01-12T11:40:41.618Z,25.10
2023-01-12T11:43:37.329Z,22.40
2023-01-12T11:46:30.081Z,24.60
2023-01-12T11:49:13.085Z,24.20
2023-01-12T11:51:42.043Z,24.40
2023-01-12T11:54:16.137Z,26.60
2023-01-12T11:57:02.895Z,21.90
2023-01-12T11:59:43.711Z,28.10
2023-01-12T12:02:33.224Z,24.20
2023-01-12T12:05:18.461Z,22.60
2023-01-12T12:08:03.762Z,22.20
2023-01-12T12:10:51.114Z,22.70
2023-01-12T12:13:31.259Z,23.00
2023-01-12T12:15:59.165Z,22.60
2023-01-12T12:18:42.168Z,24.20
2023-01-12T12:21:37.277Z,19.80
2023-01-12T12:24:36.815Z,23.80
2023-01-12T12:27:16.012Z,23.30
2023-01-12T12:29:55.846Z,20.90
2023-01-12T12:32:31.955Z,25.60
2023-01-12T12:35:30.341Z,21.70
2023-01-12T12:38:11.017Z,20.00
2023-01-12T12:41:18.943Z,19.90
2023-01-12T12:44:25.886Z,16.80
2023-01-12T12:47:22.562Z,20.80
2023-01-12T12:49:54.776Z,19.40
2023-01-12T12:52:25.512Z,18.30
2023-01-12T12:54:57.529Z,18.90
2023-01-12T12:57:25.387Z,22.00
2023-01-12T12:59:57.005Z,22.20
2023-01-12T13:02:52.533Z,19.30
2023-01-12T13:05:42.267Z,19.90
2023-01-12T13:08:36.566Z,19.50
2023-01-12T13:11:06.330Z,21.80
2023-01-12T13:13:37.758Z,20.70
2023-01-12T13:16:11.782Z,18.00
2023-01-12T13:18:50.503Z,17.70
2023-01-12T13:21:27.684Z,19.00
2023-01-12T13:24:10.595Z,19.60
2023-01-12T13:26:43.462Z,20.20
2023-01-12T13:29:23.789Z,20.00
2023-01-12T13:31:56.112Z,19.50
2023-01-12T13:34:36.883Z,17.60
2023-01-12T13:37:10.680Z,19.00
2023-01-12T13:39:45.194Z,21.10
2023-01-12T13:42:39.692Z,20.30
2023-01-12T13:47:42.167Z,18.20
2023-01-12T13:53:19.273Z,18.40
2023-01-12T13:56:05.341Z,20.80
2023-01-12T13:58:44.140Z,19.20
2023-01-12T14:01:19.128Z,18.20
2023-01-12T14:04:04.248Z,22.10
2023-01-12T14:06:34.896Z,19.80
2023-01-12T14:09:14.457Z,18.50
2023-01-12T14:12:09.585Z,16.40
2023-01-12T14:15:23.861Z,16.50
2023-01-12T14:17:57.948Z,18.90
2023-01-12T14:20:28.563Z,18.60
2023-01-12T14:23:22.473Z,21.20
2023-01-12T14:26:05.795Z,19.10
2023-01-12T14:28:34.846Z,21.00
2023-01-12T14:31:05.000Z,18.50
2023-01-12T14:33:38.065Z,18.10
2023-01-12T14:36:13.130Z,20.40
2023-01-12T14:38:43.693Z,17.80
2023-01-12T14:41:37.699Z,17.20
2023-01-12T14:44:25.414Z,18.50
2023-01-12T14:46:54.084Z,20.10
2023-01-12T14:49:26.151Z,19.40
2023-01-12T14:52:03.750Z,19.10
2023-01-12T14:54:34.403Z,19.30
2023-01-12T14:57:24.236Z,17.90
2023-01-12T14:59:52.933Z,16.80
2023-01-12T15:02:30.278Z,18.00
2023-01-12T15:04:58.163Z,18.40
2023-01-12T15:07:31.891Z,18.00
2023-01-12T15:10:25.527Z,21.00
2023-01-12T15:12:54.914Z,18.50
2023-01-12T15:15:53.726Z,19.60
2023-01-12T15:18:39.947Z,17.00
2023-01-12T15:21:28.303Z,20.20
2023-01-12T15:24:15.199Z,19.90
2023-01-12T15:26:46.791Z,17.10
2023-01-12T15:29:17.154Z,18.70
2023-01-12T15:31:45.028Z,17.80
2023-01-12T15:34:12.960Z,20.00
2023-01-12T15:36:41.011Z,20.40
2023-01-12T15:39:14.298Z,22.60
2023-01-12T15:42:01.153Z,18.40
2023-01-12T15:44:29.207Z,23.70
2023-01-12T15:46:57.112Z,21.60
2023-01-12T15:49:24.956Z,18.30
2023-01-12T15:51:52.908Z,22.30
2023-01-12T15:54:21.718Z,20.20
2023-01-12T15:56:49.646Z,19.50
2023-01-12T15:59:17.559Z,18.70
2023-01-12T16:01:48.230Z,18.20
2023-01-12T16:07:12.011Z,22.10
2023-01-12T16:09:41.156Z,16.80
2023-01-12T16:12:09.146Z,18.00
2023-01-12T16:14:37.086Z,20.00
2023-01-12T16:17:05.123Z,16.90
2023-01-12T16:19:33.907Z,18.60
2023-01-12T16:22:01.825Z,18.00
2023-01-12T16:24:32.383Z,19.50
2023-01-12T16:27:01.038Z,17.10
2023-01-12T16:29:29.003Z,21.60
2023-01-12T16:31:57.229Z,18.30
2023-01-12T16:34:25.189Z,17.10
2023-01-12T16:36:53.220Z,17.70
2023-01-12T16:39:21.188Z,26.40
2023-01-12T16:41:49.010Z,25.30
2023-01-12T16:44:16.841Z,25.00
2023-01-12T16:46:45.016Z,24.20
2023-01-12T16:49:12.883Z,25.90
2023-01-12T16:51:41.086Z,22.30
2023-01-12T16:54:08.971Z,19.90
2023-01-12T16:56:36.872Z,20.20
2023-01-12T16:59:04.871Z,21.50
2023-01-12T17:01:33.291Z,19.30
2023-01-12T17:04:01.575Z,17.40
2023-01-12T17:06:30.350Z,20.10
2023-01-12T17:09:02.218Z,22.10
2023-01-12T17:11:30.932Z,22.50
2023-01-12T17:13:59.308Z,22.50
2023-01-12T17:16:29.505Z,20.80
2023-01-12T17:18:57.597Z,20.20
2023-01-12T17:21:25.642Z,20.40
2023-01-12T17:23:53.809Z,21.50
2023-01-12T17:26:21.795Z,20.90
2023-01-12T17:28:50.000Z,23.60
2023-01-12T17:31:19.266Z,21.60
2023-01-12T17:33:47.268Z,23.60
2023-01-12T17:36:15.220Z,23.30
2023-01-12T17:38:43.191Z,21.70
2023-01-12T17:41:32.409Z,21.70
2023-01-12T17:44:02.472Z,23.40
2023-01-12T17:46:31.620Z,22.50
2023-01-12T17:49:01.090Z,22.60
2023-01-12T17:51:29.713Z,20.60
2023-01-12T17:53:59.209Z,27.30
2023-01-12T17:56:31.352Z,26.40
2023-01-12T17:59:00.311Z,23.40
2023-01-12T18:01:31.690Z,26.10
2023-01-12T18:04:00.377Z,25.70
2023-01-12T18:06:29.183Z,23.40
2023-01-12T18:08:59.460Z,22.80
2023-01-12T18:11:28.575Z,79.90
2023-01-12T18:13:57.523Z,50.70
2023-01-12T18:16:26.044Z,43.40
2023-01-12T18:18:54.258Z,31.90
2023-01-12T18:21:25.042Z,23.50
2023-01-12T18:23:53.864Z,24.10
2023-01-12T18:26:25.450Z,26.30
2023-01-12T18:28:55.159Z,27.40
2023-01-12T18:31:26.627Z,24.60
2023-01-12T18:34:06.019Z,23.50
2023-01-12T18:36:36.984Z,22.00
2023-01-12T18:39:07.895Z,25.40
2023-01-12T18:41:55.369Z,25.60
2023-01-12T18:44:24.370Z,23.50
2023-01-12T18:47:10.808Z,27.30
2023-01-12T18:49:44.213Z,25.10
2023-01-12T18:52:32.114Z,28.60
2023-01-12T18:55:00.717Z,29.00
2023-01-12T18:57:30.942Z,26.50
2023-01-12T19:00:15.711Z,29.50
2023-01-12T19:02:44.272Z,30.50
2023-01-12T19:05:17.211Z,29.60
2023-01-12T19:08:00.197Z,27.20
2023-01-12T19:10:30.287Z,25.60
2023-01-12T19:13:17.750Z,27.70
2023-01-12T19:16:04.438Z,27.40
2023-01-12T19:18:35.374Z,24.30
2023-01-12T19:21:26.395Z,26.30
2023-01-12T19:24:12.842Z,27.20
2023-01-12T19:26:59.524Z,32.90
2023-01-12T19:29:27.421Z,25.90
2023-01-12T19:31:55.293Z,23.50
2023-01-12T19:34:24.851Z,25.20
2023-01-12T19:36:52.953Z,28.40
2023-01-12T19:39:31.293Z,25.10
2023-01-12T19:42:17.658Z,29.00
2023-01-12T19:44:45.526Z,28.30
2023-01-12T19:47:13.439Z,28.60
2023-01-12T19:49:41.320Z,33.70
2023-01-12T19:52:09.215Z,33.70
2023-01-12T19:54:37.837Z,37.00
2023-01-12T19:57:06.466Z,31.10
2023-01-12T19:59:34.344Z,30.90
2023-01-12T20:02:02.168Z,29.70
2023-01-12T20:04:30.057Z,29.30
2023-01-12T20:06:57.974Z,32.70
2023-01-12T20:09:25.987Z,31.30
2023-01-12T20:11:55.199Z,29.70
2023-01-12T20:14:23.104Z,30.90
2023-01-12T20:16:51.005Z,31.20
2023-01-12T20:19:20.600Z,29.60
2023-01-12T20:21:48.914Z,28.70
2023-01-12T20:24:16.858Z,28.70
2023-01-12T20:26:44.829Z,35.90
2023-01-12T20:29:12.663Z,30.30
2023-01-12T20:31:40.873Z,32.90
2023-01-12T20:34:08.777Z,32.80
2023-01-12T20:36:38.628Z,29.80
2023-01-12T20:39:11.065Z,32.60
2023-01-12T20:41:39.665Z,31.30
2023-01-12T20:44:13.208Z,31.60
2023-01-12T20:46:41.537Z,31.30
2023-01-12T20:49:10.174Z,28.60
2023-01-12T20:51:38.562Z,30.60
2023-01-12T20:54:06.472Z,30.80
2023-01-12T20:56:34.373Z,30.50
2023-01-12T20:59:02.234Z,31.60
2023-01-12T21:01:30.324Z,31.10
2023-01-12T21:03:58.304Z,34.30
2023-01-12T21:06:26.104Z,33.90
2023-01-12T21:08:54.038Z,28.50
2023-01-12T21:11:21.987Z,30.20
2023-01-12T21:13:49.833Z,35.00
2023-01-12T21:16:19.866Z,31.70
2023-01-12T21:18:48.203Z,35.90
2023-01-12T21:21:16.642Z,30.60
2023-01-12T21:23:44.517Z,29.40
2023-01-12T21:26:12.376Z,27.90
2023-01-12T21:28:40.722Z,27.30
2023-01-12T21:31:11.853Z,30.40
2023-01-12T21:33:40.229Z,29.90
2023-01-12T21:36:10.723Z,29.90
2023-01-12T21:38:38.844Z,30.50
2023-01-12T21:41:07.041Z,31.00
2023-01-12T21:43:35.050Z,34.60
2023-01-12T21:46:06.187Z,29.40
2023-01-12T21:48:34.460Z,33.60
2023-01-12T21:51:06.820Z,30.90
2023-01-12T21:53:35.081Z,32.00
2023-01-12T21:56:04.765Z,32.10
2023-01-12T21:58:35.072Z,34.60
2023-01-12T22:01:14.518Z,33.20
2023-01-12T22:03:42.734Z,33.10
2023-01-12T22:06:12.638Z,31.30
2023-01-12T22:08:41.884Z,30.70
2023-01-12T22:11:14.754Z,30.10
2023-01-12T22:13:46.514Z,37.00
2023-01-12T22:16:15.945Z,41.80
2023-01-12T22:18:50.028Z,45.10
2023-01-12T22:21:20.563Z,41.10
2023-01-12T22:23:49.308Z,43.90
2023-01-12T22:26:18.457Z,43.40
2023-01-12T22:28:48.080Z,44.20
2023-01-12T22:31:19.193Z,40.60
2023-01-12T22:34:02.736Z,44.40
2023-01-12T22:36:33.914Z,45.00
2023-01-12T22:39:03.002Z,43.60
2023-01-12T22:41:30.851Z,43.40
2023-01-12T22:43:58.755Z,42.10
2023-01-12T22:46:27.932Z,42.80
2023-01-12T22:48:57.573Z,42.40
2023-01-12T22:51:27.283Z,46.80
2023-01-12T22:53:56.096Z,42.00
2023-01-12T22:56:24.439Z,43.90
2023-01-12T22:58:54.833Z,40.80
2023-01-12T23:01:25.465Z,40.80
2023-01-12T23:03:54.857Z,42.90
2023-01-12T23:06:25.000Z,39.70
2023-01-12T23:08:53.305Z,43.40
2023-01-12T23:11:23.528Z,40.50
2023-01-12T23:13:53.041Z,42.80
2023-01-12T23:16:21.244Z,38.50
2023-01-12T23:18:50.332Z,39.70
2023-01-12T23:21:21.916Z,40.70
2023-01-12T23:23:53.184Z,41.40
2023-01-12T23:26:24.598Z,40.50
2023-01-12T23:28:56.005Z,38.60
2023-01-12T23:31:27.247Z,36.80
2023-01-12T23:33:57.014Z,41.90
2023-01-12T23:36:27.229Z,42.30
2023-01-12T23:38:57.873Z,42.00
2023-01-12T23:41:27.720Z,35.30
2023-01-12T23:43:58.483Z,38.00
2023-01-12T23:46:28.176Z,40.40
2023-01-12T23:48:57.525Z,38.60
2023-01-12T23:51:26.952Z,37.20
2023-01-12T23:53:59.461Z,34.60
2023-01-12T23:56:32.391Z,33.20
2023-01-12T23:59:00.757Z,34.70
